Time;durP1;ratioP1;P1;durP2;ratioP2;P2;SDS_P1;SDS_P2;PMS_P1;PMS_P2;Temp;Humidity;BMP_temperature;BMP_pressure;BME280_temperature;BME280_humidity;BME280_pressure;Samples;Min_cycle;Max_cycle;Signal;HPM_P1;HPM_P2
2022/01/13 00:01:08;;;;;;;46.70;28.83;;;3.90;99.90;;;;;;5048727;28;20738;-66
2022/01/13 00:03:33;;;;;;;44.37;27.23;;;3.90;99.90;;;;;;5036743;28;20518;-66
2022/01/13 00:05:59;;;;;;;46.83;26.07;;;3.80;99.90;;;;;;5036122;28;20273;-66
2022/01/13 00:08:25;;;;;;;44.07;25.27;;;3.80;99.90;;;;;;5052538;28;20171;-65
2022/01/13 00:10:50;;;;;;;47.80;27.13;;;3.90;99.90;;;;;;5033792;28;20605;-66
2022/01/13 00:13:23;;;;;;;46.10;25.17;;;3.80;99.90;;;;;;5029865;28;20175;-66
2022/01/13 00:16:22;;;;;;;48.93;26.40;;;3.80;99.90;;;;;;5035921;28;20171;-66
2022/01/13 00:18:49;;;;;;;52.17;26.47;;;3.90;99.90;;;;;;5037242;28;20183;-67
2022/01/13 00:23:46;;;;;;;46.63;25.73;;;3.80;99.90;;;;;;5049579;28;20652;-66
2022/01/13 00:26:21;;;;;;;48.43;27.13;;;3.70;99.90;;;;;;5053686;28;20171;-65
2022/01/13 00:28:50;;;;;;;43.80;27.70;;;3.70;99.90;;;;;;5036500;28;20171;-66
2022/01/13 00:31:19;;;;;;;44.63;26.47;;;3.70;99.90;;;;;;5033688;28;20192;-65
2022/01/13 00:33:46;;;;;;;48.47;28.40;;;3.80;99.90;;;;;;5030973;28;20186;-65
2022/01/13 00:36:13;;;;;;;38.80;26.80;;;3.80;99.90;;;;;;5053522;28;20163;-66
2022/01/13 00:38:39;;;;;;;41.77;25.63;;;3.90;99.90;;;;;;5038549;28;20184;-66
2022/01/13 00:41:05;;;;;;;45.73;26.20;;;3.80;99.90;;;;;;5015497;28;20200;-65
2022/01/13 00:43:32;;;;;;;43.53;26.00;;;3.80;99.90;;;;;;5045773;28;20767;-65
2022/01/13 00:45:57;;;;;;;48.03;26.87;;;3.80;99.90;;;;;;5053246;28;20522;-66
2022/01/13 00:48:23;;;;;;;47.23;27.50;;;3.80;99.90;;;;;;5040968;28;20186;-67
2022/01/13 00:50:49;;;;;;;48.77;25.00;;;3.70;99.90;;;;;;5033247;28;20657;-66
2022/01/13 00:53:16;;;;;;;41.83;24.63;;;3.70;99.90;;;;;;5042401;28;20171;-65
2022/01/13 00:55:48;;;;;;;47.53;24.23;;;3.80;99.90;;;;;;5052963;28;20192;-66
2022/01/13 00:58:14;;;;;;;41.07;26.07;;;3.80;99.90;;;;;;5044096;28;20214;-66
2022/01/13 01:00:41;;;;;;;43.23;25.80;;;3.80;99.90;;;;;;5032858;28;20234;-67
2022/01/13 01:03:07;;;;;;;44.10;27.33;;;3.80;99.90;;;;;;5015967;28;20202;-66
2022/01/13 01:05:34;;;;;;;43.83;25.03;;;3.80;99.90;;;;;;5033016;28;20241;-66
2022/01/13 01:08:05;;;;;;;46.50;26.53;;;3.80;99.90;;;;;;5038541;28;20186;-67
2022/01/13 01:10:31;;;;;;;41.43;25.93;;;3.90;99.90;;;;;;5053003;28;20203;-65
2022/01/13 01:12:57;;;;;;;47.13;24.30;;;3.90;99.90;;;;;;5047400;28;20172;-66
2022/01/13 01:15:24;;;;;;;43.13;26.47;;;3.90;99.90;;;;;;5032918;28;20187;-66
2022/01/13 01:17:56;;;;;;;42.80;25.30;;;3.80;99.90;;;;;;5035727;28;20167;-67
2022/01/13 01:20:29;;;;;;;42.83;26.00;;;3.80;99.90;;;;;;5052693;28;20240;-66
2022/01/13 01:23:02;;;;;;;44.47;25.27;;;3.80;99.90;;;;;;5048970;28;20640;-66
2022/01/13 01:27:56;;;;;;;46.27;24.37;;;3.70;99.90;;;;;;5033470;28;20274;-65
2022/01/13 01:30:43;;;;;;;39.67;26.57;;;3.70;99.90;;;;;;5032540;28;20180;-65
2022/01/13 01:33:13;;;;;;;44.47;25.67;;;3.70;99.90;;;;;;5036262;28;20179;-66
2022/01/13 01:35:39;;;;;;;38.40;26.03;;;3.80;99.90;;;;;;5052319;28;20193;-66
2022/01/13 01:38:05;;;;;;;38.23;24.87;;;3.70;99.90;;;;;;5048816;28;20188;-65
2022/01/13 01:40:30;;;;;;;46.37;27.53;;;3.70;99.90;;;;;;5051547;28;20672;-65
2022/01/13 01:42:56;;;;;;;41.93;24.80;;;3.70;99.90;;;;;;5050040;28;20194;-65
2022/01/13 01:45:25;;;;;;;40.47;25.83;;;3.70;99.90;;;;;;5032274;28;20750;-66
2022/01/13 01:47:52;;;;;;;46.57;25.77;;;3.70;99.90;;;;;;5043313;28;20713;-66
2022/01/13 01:50:21;;;;;;;40.10;24.47;;;3.70;99.90;;;;;;5052203;28;20191;-67
2022/01/13 01:52:52;;;;;;;45.80;26.47;;;3.70;99.90;;;;;;5044509;28;20172;-67
2022/01/13 01:55:18;;;;;;;47.83;25.53;;;3.70;99.90;;;;;;5046923;28;20582;-66
2022/01/13 01:57:45;;;;;;;42.67;24.60;;;3.70;99.90;;;;;;5051885;28;20269;-66
2022/01/13 02:00:14;;;;;;;44.63;25.17;;;3.70;99.90;;;;;;5051310;28;20226;-67
2022/01/13 02:02:42;;;;;;;38.50;24.97;;;3.70;99.90;;;;;;5051371;28;20175;-66
2022/01/13 02:05:08;;;;;;;36.17;24.27;;;3.70;99.90;;;;;;5044030;28;20571;-66
2022/01/13 02:07:33;;;;;;;40.50;25.20;;;3.70;99.90;;;;;;5031956;28;20176;-66
2022/01/13 02:09:59;;;;;;;38.27;25.30;;;3.70;99.90;;;;;;5037074;28;20179;-66
2022/01/13 02:12:34;;;;;;;42.10;24.67;;;3.70;99.90;;;;;;5051498;28;20236;-67
2022/01/13 02:17:39;;;;;;;44.97;26.43;;;3.70;99.90;;;;;;5031680;28;20171;-67
2022/01/13 02:20:07;;;;;;;38.17;24.03;;;3.60;99.90;;;;;;5036625;28;20183;-66
2022/01/13 02:22:33;;;;;;;41.00;24.73;;;3.60;99.90;;;;;;5051359;28;20648;-66
2022/01/13 02:24:59;;;;;;;41.63;23.50;;;3.60;99.90;;;;;;5046821;28;20214;-66
2022/01/13 02:27:25;;;;;;;38.93;24.67;;;3.50;99.90;;;;;;5051589;28;20177;-65
2022/01/13 02:29:51;;;;;;;48.37;26.60;;;3.50;99.90;;;;;;5044876;28;20249;-66
2022/01/13 02:32:17;;;;;;;41.03;23.30;;;3.40;99.90;;;;;;5032293;28;20203;-66
2022/01/13 02:34:43;;;;;;;42.20;27.60;;;3.30;99.90;;;;;;5035814;28;20210;-65
2022/01/13 02:37:09;;;;;;;47.03;27.30;;;3.40;99.90;;;;;;5051307;28;20203;-66
2022/01/13 02:39:35;;;;;;;36.40;23.77;;;3.40;99.90;;;;;;5048137;28;20192;-66
2022/01/13 02:42:04;;;;;;;44.00;25.20;;;3.40;99.90;;;;;;5031179;28;20199;-66
2022/01/13 02:44:31;;;;;;;36.97;24.23;;;3.40;99.90;;;;;;5035147;28;20248;-65
2022/01/13 02:47:20;;;;;;;41.23;26.03;;;3.30;99.90;;;;;;5031075;28;20167;-65
2022/01/13 02:49:46;;;;;;;41.33;26.20;;;3.40;99.90;;;;;;5011549;28;20226;-66
2022/01/13 02:52:12;;;;;;;42.80;24.13;;;3.40;99.90;;;;;;5014184;28;20188;-66
2022/01/13 02:54:37;;;;;;;43.60;26.73;;;3.50;99.90;;;;;;5055172;28;20186;-66
2022/01/13 02:57:03;;;;;;;45.20;25.40;;;3.50;99.90;;;;;;5055070;28;20179;-67
2022/01/13 02:59:29;;;;;;;47.60;26.83;;;3.50;99.90;;;;;;5036813;28;20202;-66
2022/01/13 03:01:54;;;;;;;45.23;25.33;;;3.50;99.90;;;;;;5034805;28;20215;-66
2022/01/13 03:04:22;;;;;;;45.53;25.53;;;3.50;99.90;;;;;;5051451;28;20262;-65
2022/01/13 03:06:47;;;;;;;49.43;26.10;;;3.50;99.90;;;;;;5054958;28;20167;-68
2022/01/13 03:09:14;;;;;;;43.40;25.70;;;3.50;99.90;;;;;;5039818;28;20182;-66
2022/01/13 03:11:40;;;;;;;45.83;26.03;;;3.50;99.90;;;;;;5034945;28;20635;-66
2022/01/13 03:14:08;;;;;;;47.17;25.13;;;3.50;99.90;;;;;;5018155;28;20258;-66
2022/01/13 03:16:34;;;;;;;36.20;23.20;;;3.50;99.90;;;;;;5035352;28;20253;-66
2022/01/13 03:19:00;;;;;;;38.13;24.20;;;3.50;99.90;;;;;;5046567;28;20175;-65
2022/01/13 03:21:26;;;;;;;41.23;25.03;;;3.50;99.90;;;;;;5054410;28;20190;-66
2022/01/13 03:23:52;;;;;;;39.77;24.83;;;3.50;99.90;;;;;;5041333;28;21473;-67
2022/01/13 03:26:20;;;;;;;41.10;25.73;;;3.40;99.90;;;;;;5036933;28;20170;-66
2022/01/13 03:28:54;;;;;;;39.00;23.87;;;3.30;99.90;;;;;;5035423;28;20195;-66
2022/01/13 03:31:21;;;;;;;32.00;22.97;;;3.20;99.90;;;;;;5034830;28;20569;-66
2022/01/13 03:33:47;;;;;;;40.17;24.93;;;3.10;99.90;;;;;;5052808;28;20175;-66
2022/01/13 03:36:14;;;;;;;45.50;24.33;;;3.10;99.90;;;;;;5054924;28;20185;-65
2022/01/13 03:38:39;;;;;;;35.00;24.90;;;3.10;99.90;;;;;;5037246;28;20198;-66
2022/01/13 03:41:05;;;;;;;38.23;23.83;;;3.10;99.90;;;;;;5034354;28;20195;-66
2022/01/13 03:43:32;;;;;;;38.50;24.13;;;3.00;99.90;;;;;;5049318;28;20174;-66
2022/01/13 03:45:58;;;;;;;37.23;23.10;;;3.00;99.90;;;;;;5050620;28;20621;-65
2022/01/13 03:48:24;;;;;;;33.70;21.37;;;3.00;99.90;;;;;;5034397;28;20645;-65
2022/01/13 03:50:50;;;;;;;35.50;23.23;;;3.00;99.90;;;;;;5036028;28;20203;-67
2022/01/13 03:53:15;;;;;;;34.63;22.77;;;3.00;99.90;;;;;;5036032;28;20545;-66
2022/01/13 03:56:10;;;;;;;38.57;23.13;;;3.10;99.90;;;;;;5053613;28;20542;-65
2022/01/13 03:59:35;;;;;;;37.63;23.50;;;3.10;99.90;;;;;;5016502;28;20188;-66
2022/01/13 04:02:09;;;;;;;40.93;23.53;;;3.10;99.90;;;;;;5029424;28;20222;-66
2022/01/13 04:04:47;;;;;;;33.27;23.80;;;3.10;99.90;;;;;;5051175;28;20210;-65
2022/01/13 04:07:22;;;;;;;34.63;24.87;;;3.10;99.90;;;;;;5033941;28;20672;-66
2022/01/13 04:09:48;;;;;;;33.17;24.97;;;3.10;99.90;;;;;;5037207;28;20174;-66
2022/01/13 04:12:15;;;;;;;39.70;26.83;;;3.00;99.90;;;;;;5053710;28;20257;-67
2022/01/13 04:17:27;;;;;;;39.03;25.90;;;3.10;99.90;;;;;;5033911;28;20187;-66
2022/01/13 04:19:53;;;;;;;35.03;24.20;;;3.10;99.90;;;;;;5036783;28;20174;-66
2022/01/13 04:22:19;;;;;;;42.10;24.77;;;3.10;99.90;;;;;;5053559;28;20220;-65
2022/01/13 04:24:49;;;;;;;37.37;23.53;;;3.10;99.90;;;;;;5051532;28;20230;-66
2022/01/13 04:27:28;;;;;;;42.33;23.77;;;3.00;99.90;;;;;;5033599;28;20179;-66
2022/01/13 04:30:22;;;;;;;34.93;23.67;;;3.00;99.90;;;;;;5035508;28;20309;-66
2022/01/13 04:32:45;;;;;;;35.27;24.07;;;2.90;99.90;;;;;;5053338;28;20167;-67
2022/01/13 04:35:11;;;;;;;38.77;23.97;;;2.80;99.90;;;;;;5049070;28;20242;-66
2022/01/13 04:37:37;;;;;;;42.87;26.13;;;2.80;99.90;;;;;;5033493;28;20664;-65
2022/01/13 04:40:04;;;;;;;45.83;24.77;;;2.80;99.90;;;;;;5035606;28;20246;-65
2022/01/13 04:42:35;;;;;;;39.90;26.63;;;2.80;99.90;;;;;;5035441;28;20540;-66
2022/01/13 04:45:00;;;;;;;41.63;25.97;;;2.90;99.90;;;;;;5051328;28;20252;-65
2022/01/13 04:47:26;;;;;;;39.70;24.57;;;3.00;99.90;;;;;;5033379;28;20689;-66
2022/01/13 04:49:52;;;;;;;35.33;24.50;;;3.00;99.90;;;;;;5033166;28;20310;-67
2022/01/13 04:52:18;;;;;;;38.43;26.13;;;3.10;99.90;;;;;;5052724;28;20190;-66
2022/01/13 04:54:44;;;;;;;44.63;25.13;;;3.00;99.90;;;;;;5052967;28;20182;-65
2022/01/13 04:57:17;;;;;;;42.87;25.63;;;3.10;99.90;;;;;;5051425;28;20481;-66
2022/01/13 04:59:44;;;;;;;49.27;28.17;;;3.00;99.90;;;;;;5052898;28;20182;-66
2022/01/13 05:02:09;;;;;;;49.50;29.63;;;2.90;99.90;;;;;;5034797;28;20215;-66
2022/01/13 05:04:35;;;;;;;47.53;27.93;;;2.80;99.90;;;;;;5033003;28;20202;-66
2022/01/13 05:07:01;;;;;;;49.47;29.20;;;2.90;99.90;;;;;;5048488;28;20204;-66
2022/01/13 05:09:27;;;;;;;56.53;29.27;;;2.90;99.90;;;;;;5052782;28;20217;-67
2022/01/13 05:11:52;;;;;;;48.53;28.90;;;2.90;99.90;;;;;;5038307;28;20562;-67
2022/01/13 05:14:18;;;;;;;49.33;27.90;;;2.90;99.90;;;;;;5031699;28;20251;-65
2022/01/13 05:20:08;;;;;;;49.77;27.07;;;2.90;99.90;;;;;;4990961;28;20255;-65
2022/01/13 05:22:34;;;;;;;47.27;25.23;;;2.90;99.90;;;;;;4989357;28;20721;-66
2022/01/13 05:24:59;;;;;;;45.33;25.00;;;2.80;99.90;;;;;;5026273;28;20238;-67
2022/01/13 05:27:27;;;;;;;47.90;26.20;;;2.70;99.90;;;;;;5048915;28;20565;-66
2022/01/13 05:29:52;;;;;;;49.23;25.00;;;2.60;99.90;;;;;;5052420;28;20179;-66
2022/01/13 05:32:18;;;;;;;48.93;26.63;;;2.60;99.90;;;;;;5032530;28;20253;-66
2022/01/13 05:34:43;;;;;;;51.10;26.37;;;2.50;99.90;;;;;;5032438;28;20180;-66
2022/01/13 05:37:09;;;;;;;48.90;26.73;;;2.50;99.90;;;;;;5049847;28;20171;-66
2022/01/13 05:39:35;;;;;;;55.83;30.10;;;2.50;99.90;;;;;;5034393;28;20175;-66
2022/01/13 05:42:00;;;;;;;40.43;24.03;;;2.50;99.90;;;;;;5035707;28;20202;-66
2022/01/13 05:44:26;;;;;;;50.10;26.53;;;2.50;99.90;;;;;;5033611;28;20565;-66
2022/01/13 05:46:51;;;;;;;52.90;27.33;;;2.40;99.90;;;;;;5052007;28;20308;-67
2022/01/13 05:49:17;;;;;;;51.93;25.83;;;2.40;99.90;;;;;;5043350;28;20182;-66
2022/01/13 05:51:43;;;;;;;48.27;28.17;;;2.40;99.90;;;;;;5032047;28;20245;-66
2022/01/13 05:54:08;;;;;;;46.17;27.83;;;2.40;99.90;;;;;;5038191;28;20587;-67
2022/01/13 05:56:34;;;;;;;50.10;24.93;;;2.40;99.90;;;;;;5051906;28;20187;-66
2022/01/13 05:58:59;;;;;;;45.97;25.53;;;2.40;99.90;;;;;;5047051;28;20194;-65
2022/01/13 06:01:25;;;;;;;57.50;29.73;;;2.40;99.90;;;;;;5031889;28;20211;-65
2022/01/13 06:03:51;;;;;;;52.53;25.43;;;2.30;99.90;;;;;;5034403;28;20281;-66
2022/01/13 06:06:16;;;;;;;44.10;23.93;;;2.30;99.90;;;;;;5052171;28;20171;-65
2022/01/13 06:08:42;;;;;;;56.40;25.50;;;2.30;99.90;;;;;;5050231;28;20266;-65
2022/01/13 06:11:07;;;;;;;46.77;24.87;;;2.30;99.90;;;;;;5040266;28;20191;-65
2022/01/13 06:13:33;;;;;;;56.70;25.93;;;2.30;99.90;;;;;;5051508;28;20171;-65
2022/01/13 06:15:59;;;;;;;55.00;25.43;;;2.20;99.90;;;;;;5051717;28;20186;-65
2022/01/13 06:18:25;;;;;;;52.47;26.57;;;2.20;99.90;;;;;;5033277;28;20270;-65
2022/01/13 06:20:50;;;;;;;56.90;26.67;;;2.20;99.90;;;;;;5051465;28;20183;-66
2022/01/13 06:23:17;;;;;;;58.43;27.13;;;2.20;99.90;;;;;;5034173;28;20191;-66
2022/01/13 06:25:43;;;;;;;49.83;26.63;;;2.30;99.90;;;;;;5031280;28;20207;-66
2022/01/13 06:28:09;;;;;;;59.50;26.50;;;2.30;99.90;;;;;;5046540;28;20675;-67
2022/01/13 06:30:35;;;;;;;53.90;26.07;;;2.30;99.90;;;;;;5046254;28;20544;-66
2022/01/13 06:33:01;;;;;;;52.83;26.63;;;2.30;99.90;;;;;;5031137;28;20527;-65
2022/01/13 06:35:27;;;;;;;54.00;26.57;;;2.20;99.90;;;;;;5034436;28;20187;-65
2022/01/13 06:37:52;;;;;;;52.03;26.10;;;2.20;99.90;;;;;;5051365;28;20183;-65
2022/01/13 06:40:18;;;;;;;51.13;23.97;;;2.10;99.90;;;;;;5046700;28;20206;-66
2022/01/13 06:42:44;;;;;;;49.57;26.43;;;2.00;99.90;;;;;;5051025;28;20171;-65
2022/01/13 06:45:10;;;;;;;48.30;26.23;;;2.00;99.90;;;;;;5040237;28;20221;-66
2022/01/13 06:47:37;;;;;;;59.07;26.00;;;2.00;99.90;;;;;;5031349;28;20241;-66
2022/01/13 06:50:04;;;;;;;65.60;27.93;;;2.00;99.90;;;;;;5039885;28;20182;-65
2022/01/13 06:52:29;;;;;;;64.73;27.40;;;2.00;99.90;;;;;;5051292;28;20175;-65
2022/01/13 06:54:55;;;;;;;52.57;26.53;;;2.10;99.90;;;;;;5042819;28;20179;-65
2022/01/13 06:57:20;;;;;;;45.47;24.50;;;2.10;99.90;;;;;;5031098;28;20215;-66
2022/01/13 06:59:47;;;;;;;54.50;27.47;;;2.10;99.90;;;;;;5036757;28;20183;-66
2022/01/13 07:02:13;;;;;;;58.80;25.90;;;2.20;99.90;;;;;;5051037;28;20237;-65
2022/01/13 07:04:39;;;;;;;50.10;26.53;;;2.10;99.90;;;;;;5046546;28;20206;-65
2022/01/13 07:07:05;;;;;;;54.90;24.33;;;2.10;99.90;;;;;;5031126;28;20267;-66
2022/01/13 07:09:31;;;;;;;50.50;24.97;;;2.10;99.90;;;;;;5032333;28;20188;-66
2022/01/13 07:11:56;;;;;;;51.70;24.60;;;2.00;99.90;;;;;;5048201;28;20202;-67
2022/01/13 07:14:22;;;;;;;54.27;25.67;;;2.00;99.90;;;;;;5049916;28;20207;-66
2022/01/13 07:16:48;;;;;;;67.73;29.27;;;2.00;99.90;;;;;;5034971;28;20180;-68
2022/01/13 07:19:15;;;;;;;73.83;31.37;;;2.00;99.90;;;;;;5031079;28;20637;-66
2022/01/13 07:21:42;;;;;;;60.97;27.73;;;1.90;99.90;;;;;;5050450;28;20190;-65
2022/01/13 07:24:08;;;;;;;55.50;28.83;;;1.90;99.90;;;;;;5045130;28;20203;-66
2022/01/13 07:26:35;;;;;;;60.10;28.47;;;1.90;99.90;;;;;;5048606;28;20210;-66
2022/01/13 07:29:01;;;;;;;68.17;29.87;;;1.90;99.90;;;;;;5050983;28;20182;-66
2022/01/13 07:31:28;;;;;;;69.63;30.30;;;1.90;99.90;;;;;;5034142;28;20576;-67
2022/01/13 07:33:54;;;;;;;64.73;30.27;;;2.00;99.90;;;;;;5030610;28;20183;-67
2022/01/13 07:36:19;;;;;;;71.30;33.27;;;2.00;99.90;;;;;;5045532;28;20179;-67
2022/01/13 07:38:45;;;;;;;73.50;33.53;;;2.00;99.90;;;;;;5043803;28;20190;-67
2022/01/13 07:41:11;;;;;;;72.03;34.67;;;2.00;99.90;;;;;;5035191;28;20247;-67
2022/01/13 07:43:37;;;;;;;82.03;35.83;;;2.00;99.90;;;;;;5017992;28;20419;-67
2022/01/13 07:46:02;;;;;;;70.00;32.73;;;2.00;99.90;;;;;;5034780;28;20251;-67
2022/01/13 07:48:28;;;;;;;68.97;33.97;;;2.00;99.90;;;;;;5043235;28;20200;-67
2022/01/13 07:50:54;;;;;;;76.00;32.00;;;2.00;99.90;;;;;;5054323;28;20190;-66
2022/01/13 07:53:20;;;;;;;66.97;32.03;;;2.00;99.90;;;;;;5046573;28;20183;-65
2022/01/13 07:55:45;;;;;;;80.90;33.37;;;2.00;99.90;;;;;;5034055;28;20178;-66
2022/01/13 07:58:11;;;;;;;76.23;35.53;;;2.00;99.90;;;;;;5039226;28;20189;-65
2022/01/13 08:00:37;;;;;;;70.40;32.87;;;2.00;99.90;;;;;;5054077;28;20207;-66
2022/01/13 08:03:03;;;;;;;70.50;31.77;;;1.90;99.90;;;;;;5032170;28;20599;-66
2022/01/13 08:05:29;;;;;;;73.43;32.97;;;1.90;99.90;;;;;;5016323;28;20207;-66
2022/01/13 08:07:55;;;;;;;66.63;32.57;;;1.90;99.90;;;;;;5017160;28;20183;-66
2022/01/13 08:10:21;;;;;;;62.10;29.90;;;1.90;99.90;;;;;;5033953;28;20195;-66
2022/01/13 08:12:46;;;;;;;64.07;30.73;;;1.80;99.90;;;;;;5033556;28;20186;-67
2022/01/13 08:15:14;;;;;;;65.17;28.63;;;1.80;99.90;;;;;;5053232;28;20179;-66
2022/01/13 08:20:30;;;;;;;61.53;30.07;;;1.80;99.90;;;;;;5034068;28;20249;-66
2022/01/13 08:22:57;;;;;;;63.17;28.80;;;1.80;99.90;;;;;;5046929;28;20260;-67
2022/01/13 08:25:23;;;;;;;55.93;27.40;;;1.90;99.90;;;;;;5053383;28;20194;-67
2022/01/13 08:27:50;;;;;;;66.17;29.73;;;1.90;99.90;;;;;;5041176;28;20186;-66
2022/01/13 08:30:16;;;;;;;63.10;29.60;;;1.90;99.90;;;;;;5033683;28;20222;-66
2022/01/13 08:32:42;;;;;;;77.10;30.77;;;2.00;99.90;;;;;;5043438;28;20193;-67
2022/01/13 08:35:10;;;;;;;58.00;27.93;;;2.10;99.90;;;;;;5055237;28;20243;-66
2022/01/13 08:37:35;;;;;;;70.43;29.30;;;2.10;99.90;;;;;;5036636;28;20183;-66
2022/01/13 08:40:04;;;;;;;73.53;33.07;;;2.10;99.90;;;;;;5033338;28;20589;-66
2022/01/13 08:42:32;;;;;;;69.57;29.97;;;2.20;99.90;;;;;;5049436;28;20186;-65
2022/01/13 08:44:57;;;;;;;71.67;33.03;;;2.20;99.90;;;;;;5035301;28;20233;-66
2022/01/13 08:47:23;;;;;;;87.97;34.93;;;2.40;99.90;;;;;;5038360;28;20187;-66
2022/01/13 08:49:49;;;;;;;71.13;29.47;;;2.40;99.90;;;;;;5033185;28;20629;-67
2022/01/13 08:52:14;;;;;;;82.90;30.83;;;2.50;99.90;;;;;;5045487;28;20953;-66
2022/01/13 08:54:45;;;;;;;79.57;32.87;;;2.50;99.90;;;;;;5054141;28;20246;-66
2022/01/13 08:57:11;;;;;;;78.67;33.60;;;2.50;99.90;;;;;;5041721;28;20188;-67
2022/01/13 08:59:37;;;;;;;86.83;30.87;;;2.50;99.90;;;;;;5033855;28;20171;-67
2022/01/13 09:02:03;;;;;;;85.67;34.50;;;2.50;99.90;;;;;;5042247;28;20254;-67
2022/01/13 09:04:29;;;;;;;85.47;33.33;;;2.40;99.90;;;;;;5035076;28;20264;-67
2022/01/13 09:06:55;;;;;;;82.43;33.03;;;2.40;99.90;;;;;;5044877;28;20163;-67
2022/01/13 09:09:20;;;;;;;91.90;33.83;;;2.40;99.90;;;;;;5032789;28;20168;-67
2022/01/13 09:11:46;;;;;;;81.07;34.77;;;2.40;99.90;;;;;;5038906;28;20700;-67
2022/01/13 09:14:13;;;;;;;80.40;34.67;;;2.40;99.90;;;;;;5053092;28;20197;-66
2022/01/13 09:16:44;;;;;;;83.00;34.23;;;2.50;99.90;;;;;;5048592;28;20219;-67
2022/01/13 09:19:12;;;;;;;65.63;32.50;;;2.50;99.90;;;;;;5032834;28;20171;-67
2022/01/13 09:21:39;;;;;;;76.33;33.03;;;2.60;99.90;;;;;;5036494;28;20230;-67
2022/01/13 09:24:07;;;;;;;69.27;31.47;;;2.60;99.90;;;;;;5052410;28;20205;-67
2022/01/13 09:26:33;;;;;;;69.87;32.30;;;2.60;99.90;;;;;;5050348;28;20198;-67
2022/01/13 09:28:58;;;;;;;78.40;33.63;;;2.70;99.90;;;;;;5032658;28;20629;-67
2022/01/13 09:31:26;;;;;;;81.70;33.50;;;2.70;99.90;;;;;;5032932;28;20223;-66
2022/01/13 09:33:52;;;;;;;80.00;35.20;;;2.70;99.90;;;;;;5052646;28;20182;-67
2022/01/13 09:36:17;;;;;;;73.27;32.20;;;2.70;99.90;;;;;;5035331;28;20179;-68
2022/01/13 09:38:43;;;;;;;65.73;28.13;;;2.70;99.90;;;;;;5034219;28;20196;-67
2022/01/13 09:41:09;;;;;;;69.37;32.53;;;2.60;99.90;;;;;;5035154;28;20210;-67
2022/01/13 09:43:35;;;;;;;79.03;31.00;;;2.50;99.90;;;;;;5052834;28;20182;-67
2022/01/13 09:46:00;;;;;;;79.20;32.90;;;2.50;99.90;;;;;;5051453;28;20603;-67
2022/01/13 09:48:28;;;;;;;75.83;30.20;;;2.60;99.90;;;;;;5032966;28;20253;-67
2022/01/13 09:50:54;;;;;;;68.43;30.50;;;2.70;99.90;;;;;;5032911;28;20206;-67
2022/01/13 09:53:20;;;;;;;64.97;31.83;;;2.70;99.90;;;;;;5050626;28;20554;-66
2022/01/13 09:55:46;;;;;;;64.57;31.87;;;2.60;99.90;;;;;;5052083;28;20178;-66
2022/01/13 09:58:12;;;;;;;71.60;33.37;;;2.60;99.90;;;;;;5045808;28;20187;-66
2022/01/13 10:00:43;;;;;;;66.10;31.03;;;2.60;99.90;;;;;;5051821;28;20664;-66
2022/01/13 10:03:14;;;;;;;66.53;29.80;;;2.50;99.90;;;;;;5050795;28;20183;-66
2022/01/13 10:05:51;;;;;;;77.63;31.00;;;2.50;99.90;;;;;;5040733;28;20218;-66
2022/01/13 10:08:22;;;;;;;67.17;30.67;;;2.60;99.90;;;;;;5032096;28;20183;-68
2022/01/13 10:10:48;;;;;;;62.33;30.87;;;2.70;99.90;;;;;;5044629;28;20205;-65
2022/01/13 10:13:23;;;;;;;58.07;29.90;;;2.80;99.90;;;;;;5051656;28;20167;-64
2022/01/13 10:18:45;;;;;;;69.40;31.77;;;3.00;99.90;;;;;;5051172;28;20277;-67
2022/01/13 10:21:17;;;;;;;61.20;29.80;;;3.10;99.90;;;;;;5052177;28;20273;-67
2022/01/13 10:24:11;;;;;;;64.03;28.13;;;3.20;99.90;;;;;;5050620;28;20182;-67
2022/01/13 10:26:40;;;;;;;57.17;28.67;;;3.40;99.90;;;;;;5052245;28;20216;-68
2022/01/13 10:29:08;;;;;;;68.40;28.90;;;3.50;99.90;;;;;;5034510;28;20634;-67
2022/01/13 10:32:03;;;;;;;60.20;27.43;;;3.60;99.90;;;;;;5031855;28;20284;-67
2022/01/13 10:34:32;;;;;;;69.33;30.87;;;3.90;99.90;;;;;;5023364;28;20191;-66
2022/01/13 10:37:10;;;;;;;56.87;27.03;;;4.10;99.90;;;;;;5031725;28;20508;-68
2022/01/13 10:39:57;;;;;;;56.87;28.90;;;4.50;99.90;;;;;;5050596;28;20552;-67
2022/01/13 10:45:17;;;;;;;46.93;23.57;;;5.90;99.90;;;;;;5043332;28;20234;-66
2022/01/13 10:47:50;;;;;;;42.43;24.00;;;6.10;99.90;;;;;;5033245;28;20210;-67
2022/01/13 10:50:17;;;;;;;41.77;23.70;;;6.40;99.90;;;;;;5032375;28;20568;-68
2022/01/13 10:52:43;;;;;;;38.47;22.57;;;6.90;99.90;;;;;;5031580;28;20266;-67
2022/01/13 10:55:19;;;;;;;35.03;20.07;;;7.40;99.90;;;;;;5031004;28;20233;-67
2022/01/13 10:57:45;;;;;;;33.90;19.77;;;7.90;99.90;;;;;;5031422;28;20186;-67
2022/01/13 11:00:17;;;;;;;29.60;20.10;;;8.10;99.90;;;;;;5031300;28;20237;-67
2022/01/13 11:02:46;;;;;;;33.30;19.93;;;8.30;99.90;;;;;;5031688;28;20673;-67
2022/01/13 11:05:12;;;;;;;34.23;20.17;;;8.40;99.90;;;;;;5029526;28;20211;-67
2022/01/13 11:07:40;;;;;;;30.63;19.57;;;8.60;99.90;;;;;;5013869;28;20186;-67
2022/01/13 11:10:07;;;;;;;31.27;20.50;;;8.80;99.90;;;;;;5032509;28;20172;-67
2022/01/13 11:12:37;;;;;;;30.60;19.07;;;9.10;99.90;;;;;;5032676;28;20179;-67
2022/01/13 11:15:11;;;;;;;30.93;18.53;;;9.10;99.90;;;;;;5050732;28;20183;-68
2022/01/13 11:17:41;;;;;;;30.50;18.13;;;9.10;99.90;;;;;;5035788;28;20194;-67
2022/01/13 11:20:10;;;;;;;29.90;18.60;;;9.20;99.90;;;;;;5034447;28;20172;-68
2022/01/13 11:22:44;;;;;;;29.73;17.13;;;9.40;99.90;;;;;;5050420;28;20554;-66
2022/01/13 11:25:12;;;;;;;29.03;19.43;;;9.60;99.90;;;;;;5055117;28;20273;-66
2022/01/13 11:27:39;;;;;;;29.00;18.93;;;9.70;99.90;;;;;;5038274;28;20195;-66
2022/01/13 11:30:12;;;;;;;27.90;17.93;;;9.70;99.90;;;;;;5034300;28;20178;-67
2022/01/13 11:32:41;;;;;;;29.13;17.43;;;9.70;99.90;;;;;;5050161;28;20236;-67
2022/01/13 11:35:08;;;;;;;28.67;17.90;;;9.70;99.90;;;;;;5055113;28;20178;-67
2022/01/13 11:37:34;;;;;;;25.60;18.07;;;9.60;99.90;;;;;;5040251;28;20671;-67
2022/01/13 11:40:01;;;;;;;29.30;18.77;;;9.60;99.90;;;;;;5021614;28;20196;-67
2022/01/13 11:42:27;;;;;;;25.17;17.37;;;9.60;99.90;;;;;;5054848;28;20186;-67
2022/01/13 11:45:13;;;;;;;26.13;17.30;;;9.70;99.90;;;;;;5054149;28;20620;-67
2022/01/13 11:47:38;;;;;;;26.87;17.60;;;9.90;99.90;;;;;;5015031;28;20534;-65
2022/01/13 11:50:21;;;;;;;24.23;17.07;;;9.90;99.90;;;;;;5017048;28;20183;-68
2022/01/13 11:52:52;;;;;;;24.77;15.77;;;10.00;99.90;;;;;;5054088;28;20177;-67
2022/01/13 11:55:28;;;;;;;26.67;16.10;;;10.30;99.90;;;;;;5038243;28;20215;-69
2022/01/13 11:58:21;;;;;;;23.90;17.33;;;10.70;99.90;;;;;;5016805;28;20190;-67
2022/01/13 12:00:50;;;;;;;23.23;15.87;;;10.90;99.90;;;;;;5035226;28;20221;-67
2022/01/13 12:03:32;;;;;;;22.90;15.53;;;11.20;99.90;;;;;;5053998;28;20185;-67
2022/01/13 12:05:59;;;;;;;25.77;15.93;;;11.30;99.90;;;;;;5034529;28;20645;-68
2022/01/13 12:08:48;;;;;;;25.20;16.80;;;11.60;99.90;;;;;;5034296;28;20660;-68
2022/01/13 12:11:50;;;;;;;23.23;16.80;;;11.50;99.90;;;;;;5053950;28;20269;-68
2022/01/13 12:14:30;;;;;;;24.87;16.20;;;11.50;99.90;;;;;;5048745;28;20194;-67
2022/01/13 12:16:59;;;;;;;25.30;16.30;;;11.70;99.90;;;;;;5034417;28;20179;-68
2022/01/13 12:19:39;;;;;;;24.13;16.13;;;11.70;99.90;;;;;;5038631;28;20177;-68
2022/01/13 12:22:20;;;;;;;24.77;16.63;;;11.80;99.90;;;;;;5053469;28;20199;-66
2022/01/13 12:25:00;;;;;;;22.50;15.13;;;11.80;99.90;;;;;;5044795;28;20217;-68
2022/01/13 12:27:51;;;;;;;23.13;15.43;;;11.80;99.90;;;;;;5033688;28;20167;-66
2022/01/13 12:30:25;;;;;;;24.63;15.87;;;12.00;99.90;;;;;;5044510;28;20206;-66
2022/01/13 12:32:53;;;;;;;24.60;14.60;;;12.20;99.90;;;;;;5053166;28;20410;-66
2022/01/13 12:35:21;;;;;;;22.80;15.30;;;12.30;99.90;;;;;;5042489;28;20194;-66
2022/01/13 12:38:23;;;;;;;23.17;16.17;;;12.40;99.90;;;;;;5033408;28;20180;-66
2022/01/13 12:40:55;;;;;;;18.83;14.30;;;12.60;99.90;;;;;;5047837;28;20210;-66
2022/01/13 12:46:01;;;;;;;22.87;14.00;;;13.30;99.90;;;;;;5051667;28;20187;-65
2022/01/13 12:48:29;;;;;;;24.30;14.97;;;13.40;99.90;;;;;;5053431;28;20229;-66
2022/01/13 12:50:55;;;;;;;22.40;14.03;;;13.10;99.90;;;;;;5038821;28;20553;-66
2022/01/13 12:53:23;;;;;;;21.37;14.77;;;12.90;99.90;;;;;;5033288;28;20618;-66
2022/01/13 12:56:11;;;;;;;19.07;12.93;;;12.70;99.90;;;;;;5045636;28;20186;-66
2022/01/13 12:58:45;;;;;;;19.00;13.87;;;12.50;99.90;;;;;;5053115;28;20179;-66
2022/01/13 13:01:21;;;;;;;22.17;14.93;;;12.30;99.90;;;;;;5037347;28;20207;-66
2022/01/13 13:04:06;;;;;;;19.87;13.67;;;12.00;99.90;;;;;;5032520;28;20598;-66
2022/01/13 13:06:33;;;;;;;19.90;13.97;;;12.10;99.90;;;;;;5050447;28;20262;-66
2022/01/13 13:09:11;;;;;;;19.63;14.10;;;11.80;99.90;;;;;;5053222;28;20663;-66